sensor_id;sensor_type;location;lat;lon;timestamp;temperature;humidity
46730;DHT22;32476;50.002;11.854;2024-03-08T00:01:37;-1.40;99.90
46730;DHT22;32476;50.002;11.854;2024-03-08T00:04:03;-1.40;99.90
46730;DHT22;32476;50.002;11.854;2024-03-08T00:06:29;-1.50;99.90
46730;DHT22;32476;50.002;11.854;2024-03-08T00:08:56;-1.50;99.90
46730;DHT22;32476;50.002;11.854;2024-03-08T00:11:22;-1.50;99.90
46730;DHT22;32476;50.002;11.854;2024-03-08T00:13:52;-1.50;99.90
46730;DHT22;32476;50.002;11.854;2024-03-08T00:16:20;-1.50;99.90
46730;DHT22;32476;50.002;11.854;2024-03-08T00:18:46;-1.50;99.90
46730;DHT22;32476;50.002;11.854;2024-03-08T00:21:13;-1.50;99.90
46730;DHT22;32476;50.002;11.854;2024-03-08T00:23:40;-1.50;99.90
46730;DHT22;32476;50.002;11.854;2024-03-08T00:26:07;-1.50;99.90
46730;DHT22;32476;50.002;11.854;2024-03-08T00:28:33;-1.50;99.90
46730;DHT22;32476;50.002;11.854;2024-03-08T00:31:03;-1.60;99.90
46730;DHT22;32476;50.002;11.854;2024-03-08T00:33:29;-1.60;99.90
46730;DHT22;32476;50.002;11.854;2024-03-08T00:35:55;-1.60;99.90
46730;DHT22;32476;50.002;11.854;2024-03-08T00:38:22;-1.60;99.90
46730;DHT22;32476;50.002;11.854;2024-03-08T00:40:48;-1.70;99.90
46730;DHT22;32476;50.002;11.854;2024-03-08T00:43:14;-1.70;99.90
46730;DHT22;32476;50.002;11.854;2024-03-08T00:45:42;-1.70;99.90
46730;DHT22;32476;50.002;11.854;2024-03-08T00:48:09;-1.70;99.90
46730;DHT22;32476;50.002;11.854;2024-03-08T00:50:36;-1.70;99.90
46730;DHT22;32476;50.002;11.854;2024-03-08T00:53:04;-1.80;99.90
46730;DHT22;32476;50.002;11.854;2024-03-08T00:55:30;-1.80;99.90
46730;DHT22;32476;50.002;11.854;2024-03-08T00:57:56;-1.80;99.90
46730;DHT22;32476;50.002;11.854;2024-03-08T01:00:23;-1.80;99.90
46730;DHT22;32476;50.002;11.854;2024-03-08T01:02:50;-1.80;99.90
46730;DHT22;32476;50.002;11.854;2024-03-08T01:05:16;-1.80;99.90
46730;DHT22;32476;50.002;11.854;2024-03-08T01:07:44;-1.80;99.90
46730;DHT22;32476;50.002;11.854;2024-03-08T01:10:12;-1.90;99.90
46730;DHT22;32476;50.002;11.854;2024-03-08T01:12:38;-1.80;99.90
46730;DHT22;32476;50.002;11.854;2024-03-08T01:15:06;-1.90;99.90
46730;DHT22;32476;50.002;11.854;2024-03-08T01:17:32;-1.80;99.90
46730;DHT22;32476;50.002;11.854;2024-03-08T01:19:58;-1.80;99.90
46730;DHT22;32476;50.002;11.854;2024-03-08T01:22:26;-1.80;99.90
46730;DHT22;32476;50.002;11.854;2024-03-08T01:24:53;-1.80;99.90
46730;DHT22;32476;50.002;11.854;2024-03-08T01:27:20;-1.80;99.90
46730;DHT22;32476;50.002;11.854;2024-03-08T01:29:47;-1.80;99.90
46730;DHT22;32476;50.002;11.854;2024-03-08T01:32:13;-1.80;99.90
46730;DHT22;32476;50.002;11.854;2024-03-08T01:34:40;-1.80;99.90
46730;DHT22;32476;50.002;11.854;2024-03-08T01:37:08;-1.80;99.90
46730;DHT22;32476;50.002;11.854;2024-03-08T01:39:34;-1.80;99.90
46730;DHT22;32476;50.002;11.854;2024-03-08T01:42:00;-1.90;99.90
46730;DHT22;32476;50.002;11.854;2024-03-08T01:44:28;-1.90;99.90
46730;DHT22;32476;50.002;11.854;2024-03-08T01:46:54;-1.90;99.90
46730;DHT22;32476;50.002;11.854;2024-03-08T01:49:21;-1.80;99.90
46730;DHT22;32476;50.002;11.854;2024-03-08T01:51:49;-1.80;99.90
46730;DHT22;32476;50.002;11.854;2024-03-08T01:54:19;-1.80;99.90
46730;DHT22;32476;50.002;11.854;2024-03-08T01:56:46;-1.90;99.90
46730;DHT22;32476;50.002;11.854;2024-03-08T01:59:15;-1.90;99.90
46730;DHT22;32476;50.002;11.854;2024-03-08T02:01:42;-1.90;99.90
46730;DHT22;32476;50.002;11.854;2024-03-08T02:04:09;-2.00;99.90
46730;DHT22;32476;50.002;11.854;2024-03-08T02:06:36;-1.90;99.90
46730;DHT22;32476;50.002;11.854;2024-03-08T02:09:03;-1.90;99.90
46730;DHT22;32476;50.002;11.854;2024-03-08T02:11:33;-1.90;99.90
46730;DHT22;32476;50.002;11.854;2024-03-08T02:14:01;-1.90;99.90
46730;DHT22;32476;50.002;11.854;2024-03-08T02:16:27;-1.80;99.90
46730;DHT22;32476;50.002;11.854;2024-03-08T02:18:53;-1.80;99.90
46730;DHT22;32476;50.002;11.854;2024-03-08T02:21:21;-1.80;99.90
46730;DHT22;32476;50.002;11.854;2024-03-08T02:23:47;-1.70;99.90
46730;DHT22;32476;50.002;11.854;2024-03-08T02:26:14;-1.70;99.90
46730;DHT22;32476;50.002;11.854;2024-03-08T02:28:41;-1.70;99.90
46730;DHT22;32476;50.002;11.854;2024-03-08T02:31:09;-1.80;99.90
46730;DHT22;32476;50.002;11.854;2024-03-08T02:33:35;-1.70;99.90
46730;DHT22;32476;50.002;11.854;2024-03-08T02:36:02;-1.70;99.90
46730;DHT22;32476;50.002;11.854;2024-03-08T02:38:30;-1.80;99.90
46730;DHT22;32476;50.002;11.854;2024-03-08T02:40:55;-1.90;99.90
46730;DHT22;32476;50.002;11.854;2024-03-08T02:43:23;-1.80;99.90
46730;DHT22;32476;50.002;11.854;2024-03-08T02:45:50;-1.90;99.90
46730;DHT22;32476;50.002;11.854;2024-03-08T02:48:18;-1.80;99.90
46730;DHT22;32476;50.002;11.854;2024-03-08T02:50:46;-1.80;99.90
46730;DHT22;32476;50.002;11.854;2024-03-08T02:53:13;-1.90;99.90
46730;DHT22;32476;50.002;11.854;2024-03-08T02:55:39;-1.90;99.90
46730;DHT22;32476;50.002;11.854;2024-03-08T02:58:08;-1.90;99.90
46730;DHT22;32476;50.002;11.854;2024-03-08T03:00:36;-2.00;99.90
46730;DHT22;32476;50.002;11.854;2024-03-08T03:03:03;-2.00;99.90
46730;DHT22;32476;50.002;11.854;2024-03-08T03:05:30;-2.00;99.90
46730;DHT22;32476;50.002;11.854;2024-03-08T03:07:57;-2.00;99.90
46730;DHT22;32476;50.002;11.854;2024-03-08T03:10:24;-2.10;99.90
46730;DHT22;32476;50.002;11.854;2024-03-08T03:12:52;-2.10;99.90
46730;DHT22;32476;50.002;11.854;2024-03-08T03:15:18;-2.10;99.90
46730;DHT22;32476;50.002;11.854;2024-03-08T03:17:51;-2.10;99.90
46730;DHT22;32476;50.002;11.854;2024-03-08T03:20:19;-2.10;99.90
46730;DHT22;32476;50.002;11.854;2024-03-08T03:22:58;-2.20;99.90
46730;DHT22;32476;50.002;11.854;2024-03-08T03:25:28;-2.20;99.90
46730;DHT22;32476;50.002;11.854;2024-03-08T03:27:59;-2.20;99.90
46730;DHT22;32476;50.002;11.854;2024-03-08T03:30:25;-2.20;99.90
46730;DHT22;32476;50.002;11.854;2024-03-08T03:32:54;-2.30;99.90
46730;DHT22;32476;50.002;11.854;2024-03-08T03:35:22;-2.20;99.90
46730;DHT22;32476;50.002;11.854;2024-03-08T03:37:49;-2.20;99.90
46730;DHT22;32476;50.002;11.854;2024-03-08T03:40:29;-2.20;99.90
46730;DHT22;32476;50.002;11.854;2024-03-08T03:42:56;-2.20;99.90
46730;DHT22;32476;50.002;11.854;2024-03-08T03:45:25;-2.20;99.90
46730;DHT22;32476;50.002;11.854;2024-03-08T03:47:53;-2.20;99.90
46730;DHT22;32476;50.002;11.854;2024-03-08T03:50:20;-2.30;99.90
46730;DHT22;32476;50.002;11.854;2024-03-08T03:52:47;-2.30;99.90
46730;DHT22;32476;50.002;11.854;2024-03-08T03:55:15;-2.30;99.90
46730;DHT22;32476;50.002;11.854;2024-03-08T03:57:41;-2.30;99.90
46730;DHT22;32476;50.002;11.854;2024-03-08T04:00:08;-2.30;99.90
46730;DHT22;32476;50.002;11.854;2024-03-08T04:02:37;-2.30;99.90
46730;DHT22;32476;50.002;11.854;2024-03-08T04:05:05;-2.30;99.90
46730;DHT22;32476;50.002;11.854;2024-03-08T04:07:32;-2.30;99.90
46730;DHT22;32476;50.002;11.854;2024-03-08T04:10:01;-2.20;99.90
46730;DHT22;32476;50.002;11.854;2024-03-08T04:12:28;-2.20;99.90
46730;DHT22;32476;50.002;11.854;2024-03-08T04:14:55;-2.20;99.90
46730;DHT22;32476;50.002;11.854;2024-03-08T04:17:23;-2.10;99.90
46730;DHT22;32476;50.002;11.854;2024-03-08T04:19:52;-2.10;99.90
46730;DHT22;32476;50.002;11.854;2024-03-08T04:22:18;-2.10;99.90
46730;DHT22;32476;50.002;11.854;2024-03-08T04:24:46;-2.00;99.90
46730;DHT22;32476;50.002;11.854;2024-03-08T04:27:13;-2.00;99.90
46730;DHT22;32476;50.002;11.854;2024-03-08T04:29:42;-2.00;99.90
46730;DHT22;32476;50.002;11.854;2024-03-08T04:32:10;-1.90;99.90
46730;DHT22;32476;50.002;11.854;2024-03-08T04:34:35;-1.90;99.90
46730;DHT22;32476;50.002;11.854;2024-03-08T04:37:02;-1.90;99.90
46730;DHT22;32476;50.002;11.854;2024-03-08T04:39:32;-1.90;99.90
46730;DHT22;32476;50.002;11.854;2024-03-08T04:42:00;-1.90;99.90
46730;DHT22;32476;50.002;11.854;2024-03-08T04:44:30;-1.80;99.90
46730;DHT22;32476;50.002;11.854;2024-03-08T04:46:58;-1.80;99.90
46730;DHT22;32476;50.002;11.854;2024-03-08T04:49:25;-1.80;99.90
46730;DHT22;32476;50.002;11.854;2024-03-08T04:51:51;-1.90;99.90
46730;DHT22;32476;50.002;11.854;2024-03-08T04:54:19;-1.90;99.90
46730;DHT22;32476;50.002;11.854;2024-03-08T04:56:45;-2.00;99.90
46730;DHT22;32476;50.002;11.854;2024-03-08T04:59:11;-2.00;99.90
46730;DHT22;32476;50.002;11.854;2024-03-08T05:01:39;-2.00;99.90
46730;DHT22;32476;50.002;11.854;2024-03-08T05:04:05;-2.00;99.90
46730;DHT22;32476;50.002;11.854;2024-03-08T05:06:31;-2.00;99.90
46730;DHT22;32476;50.002;11.854;2024-03-08T05:08:58;-2.10;99.90
46730;DHT22;32476;50.002;11.854;2024-03-08T05:11:24;-2.10;99.90
46730;DHT22;32476;50.002;11.854;2024-03-08T05:13:50;-2.10;99.90
46730;DHT22;32476;50.002;11.854;2024-03-08T05:16:18;-2.00;99.90
46730;DHT22;32476;50.002;11.854;2024-03-08T05:18:44;-2.10;99.90
46730;DHT22;32476;50.002;11.854;2024-03-08T05:21:12;-2.10;99.90
46730;DHT22;32476;50.002;11.854;2024-03-08T05:23:40;-2.00;99.90
46730;DHT22;32476;50.002;11.854;2024-03-08T05:26:06;-2.10;99.90
46730;DHT22;32476;50.002;11.854;2024-03-08T05:28:32;-2.00;99.90
46730;DHT22;32476;50.002;11.854;2024-03-08T05:30:59;-2.00;99.90
46730;DHT22;32476;50.002;11.854;2024-03-08T05:33:25;-2.00;99.90
46730;DHT22;32476;50.002;11.854;2024-03-08T05:35:51;-2.00;99.90
46730;DHT22;32476;50.002;11.854;2024-03-08T05:38:19;-2.00;99.90
46730;DHT22;32476;50.002;11.854;2024-03-08T05:40:49;-1.90;99.90
46730;DHT22;32476;50.002;11.854;2024-03-08T05:43:16;-2.00;99.90
46730;DHT22;32476;50.002;11.854;2024-03-08T05:45:47;-1.90;99.90
46730;DHT22;32476;50.002;11.854;2024-03-08T05:48:13;-2.00;99.90
46730;DHT22;32476;50.002;11.854;2024-03-08T05:50:39;-1.90;99.90
46730;DHT22;32476;50.002;11.854;2024-03-08T05:53:07;-1.90;99.90
46730;DHT22;32476;50.002;11.854;2024-03-08T05:55:33;-1.90;99.90
46730;DHT22;32476;50.002;11.854;2024-03-08T05:58:01;-1.90;99.90
46730;DHT22;32476;50.002;11.854;2024-03-08T06:00:29;-1.80;99.90
46730;DHT22;32476;50.002;11.854;2024-03-08T06:02:56;-1.80;99.90
46730;DHT22;32476;50.002;11.854;2024-03-08T06:05:24;-1.80;99.90
46730;DHT22;32476;50.002;11.854;2024-03-08T06:07:51;-1.70;99.90
46730;DHT22;32476;50.002;11.854;2024-03-08T06:10:19;-1.70;99.90
46730;DHT22;32476;50.002;11.854;2024-03-08T06:12:45;-1.70;99.90
46730;DHT22;32476;50.002;11.854;2024-03-08T06:15:12;-1.60;99.90
46730;DHT22;32476;50.002;11.854;2024-03-08T06:17:41;-1.60;99.90
46730;DHT22;32476;50.002;11.854;2024-03-08T06:20:07;-1.50;99.90
46730;DHT22;32476;50.002;11.854;2024-03-08T06:22:42;-1.50;99.90
46730;DHT22;32476;50.002;11.854;2024-03-08T06:25:08;-1.50;99.90
46730;DHT22;32476;50.002;11.854;2024-03-08T06:27:38;-1.50;99.90
46730;DHT22;32476;50.002;11.854;2024-03-08T06:30:04;-1.40;99.90
46730;DHT22;32476;50.002;11.854;2024-03-08T06:32:30;-1.40;99.90
46730;DHT22;32476;50.002;11.854;2024-03-08T06:35:03;-1.40;99.90
46730;DHT22;32476;50.002;11.854;2024-03-08T06:37:34;-1.30;99.90
46730;DHT22;32476;50.002;11.854;2024-03-08T06:40:02;-1.30;99.90
46730;DHT22;32476;50.002;11.854;2024-03-08T06:42:34;-1.30;99.90
46730;DHT22;32476;50.002;11.854;2024-03-08T06:45:02;-1.30;99.90
46730;DHT22;32476;50.002;11.854;2024-03-08T06:47:32;-1.30;99.90
46730;DHT22;32476;50.002;11.854;2024-03-08T06:49:58;-1.30;99.90
46730;DHT22;32476;50.002;11.854;2024-03-08T06:52:26;-1.30;99.90
46730;DHT22;32476;50.002;11.854;2024-03-08T06:54:52;-1.30;99.90
46730;DHT22;32476;50.002;11.854;2024-03-08T06:57:18;-1.20;99.90
46730;DHT22;32476;50.002;11.854;2024-03-08T06:59:49;-1.20;99.90
46730;DHT22;32476;50.002;11.854;2024-03-08T07:02:15;-1.10;99.90
46730;DHT22;32476;50.002;11.854;2024-03-08T07:04:41;-1.10;99.90
46730;DHT22;32476;50.002;11.854;2024-03-08T07:07:08;-1.10;99.90
46730;DHT22;32476;50.002;11.854;2024-03-08T07:09:36;-1.00;99.90
46730;DHT22;32476;50.002;11.854;2024-03-08T07:12:02;-1.00;99.90
46730;DHT22;32476;50.002;11.854;2024-03-08T07:14:31;-0.90;99.90
46730;DHT22;32476;50.002;11.854;2024-03-08T07:16:57;-0.90;99.90
46730;DHT22;32476;50.002;11.854;2024-03-08T07:19:23;-0.90;99.90
46730;DHT22;32476;50.002;11.854;2024-03-08T07:21:51;-0.90;99.90
46730;DHT22;32476;50.002;11.854;2024-03-08T07:24:17;-0.80;99.90
46730;DHT22;32476;50.002;11.854;2024-03-08T07:26:43;-0.80;99.90
46730;DHT22;32476;50.002;11.854;2024-03-08T07:29:11;-0.80;99.90
46730;DHT22;32476;50.002;11.854;2024-03-08T07:31:36;-0.70;99.90
46730;DHT22;32476;50.002;11.854;2024-03-08T07:34:02;-0.70;99.90
46730;DHT22;32476;50.002;11.854;2024-03-08T07:36:30;-0.70;99.90
46730;DHT22;32476;50.002;11.854;2024-03-08T07:38:56;-0.60;99.90
46730;DHT22;32476;50.002;11.854;2024-03-08T07:41:23;-0.60;99.90
46730;DHT22;32476;50.002;11.854;2024-03-08T07:43:50;-0.50;99.90
46730;DHT22;32476;50.002;11.854;2024-03-08T07:46:16;-0.50;99.90
46730;DHT22;32476;50.002;11.854;2024-03-08T07:48:44;-0.40;99.90
46730;DHT22;32476;50.002;11.854;2024-03-08T07:51:16;-0.30;99.90
46730;DHT22;32476;50.002;11.854;2024-03-08T07:53:43;-0.20;99.90
46730;DHT22;32476;50.002;11.854;2024-03-08T07:56:10;0.00;99.90
46730;DHT22;32476;50.002;11.854;2024-03-08T07:58:40;0.10;99.90
46730;DHT22;32476;50.002;11.854;2024-03-08T08:01:06;0.30;99.90
46730;DHT22;32476;50.002;11.854;2024-03-08T08:03:33;0.40;99.90
46730;DHT22;32476;50.002;11.854;2024-03-08T08:06:00;0.60;99.90
46730;DHT22;32476;50.002;11.854;2024-03-08T08:08:27;0.80;99.90
46730;DHT22;32476;50.002;11.854;2024-03-08T08:10:53;1.00;99.90
46730;DHT22;32476;50.002;11.854;2024-03-08T08:13:21;1.20;99.90
46730;DHT22;32476;50.002;11.854;2024-03-08T08:15:48;1.40;99.90
46730;DHT22;32476;50.002;11.854;2024-03-08T08:18:14;1.50;99.90
46730;DHT22;32476;50.002;11.854;2024-03-08T08:20:41;1.50;99.90
46730;DHT22;32476;50.002;11.854;2024-03-08T08:23:07;1.40;99.90
46730;DHT22;32476;50.002;11.854;2024-03-08T08:25:34;1.50;99.90
46730;DHT22;32476;50.002;11.854;2024-03-08T08:28:01;1.40;99.90
46730;DHT22;32476;50.002;11.854;2024-03-08T08:30:29;1.50;99.90
46730;DHT22;32476;50.002;11.854;2024-03-08T08:32:55;1.30;99.90
46730;DHT22;32476;50.002;11.854;2024-03-08T08:35:27;1.30;99.90
46730;DHT22;32476;50.002;11.854;2024-03-08T08:37:54;1.30;99.90
46730;DHT22;32476;50.002;11.854;2024-03-08T08:40:20;1.40;99.90
46730;DHT22;32476;50.002;11.854;2024-03-08T08:42:49;1.60;99.90
46730;DHT22;32476;50.002;11.854;2024-03-08T08:45:15;2.10;99.90
46730;DHT22;32476;50.002;11.854;2024-03-08T08:47:46;2.10;99.90
46730;DHT22;32476;50.002;11.854;2024-03-08T08:50:14;2.00;99.90
46730;DHT22;32476;50.002;11.854;2024-03-08T08:52:40;1.80;99.90
46730;DHT22;32476;50.002;11.854;2024-03-08T08:55:06;1.80;99.90
46730;DHT22;32476;50.002;11.854;2024-03-08T08:57:34;1.70;99.90
46730;DHT22;32476;50.002;11.854;2024-03-08T09:00:01;1.80;99.90
46730;DHT22;32476;50.002;11.854;2024-03-08T09:02:27;1.80;99.90
46730;DHT22;32476;50.002;11.854;2024-03-08T09:04:55;1.90;99.90
46730;DHT22;32476;50.002;11.854;2024-03-08T09:07:21;2.20;99.90
46730;DHT22;32476;50.002;11.854;2024-03-08T09:09:47;2.30;99.90
46730;DHT22;32476;50.002;11.854;2024-03-08T09:12:15;2.30;99.90
46730;DHT22;32476;50.002;11.854;2024-03-08T09:14:42;2.40;99.90
46730;DHT22;32476;50.002;11.854;2024-03-08T09:17:09;2.60;99.90
46730;DHT22;32476;50.002;11.854;2024-03-08T09:19:36;2.70;99.90
46730;DHT22;32476;50.002;11.854;2024-03-08T09:22:06;2.60;99.90
46730;DHT22;32476;50.002;11.854;2024-03-08T09:24:32;2.50;99.90
46730;DHT22;32476;50.002;11.854;2024-03-08T09:26:59;2.40;99.90
46730;DHT22;32476;50.002;11.854;2024-03-08T09:29:25;2.60;99.90
46730;DHT22;32476;50.002;11.854;2024-03-08T09:31:51;2.80;99.90
46730;DHT22;32476;50.002;11.854;2024-03-08T09:34:19;2.80;99.90
46730;DHT22;32476;50.002;11.854;2024-03-08T09:40:07;2.60;99.90
46730;DHT22;32476;50.002;11.854;2024-03-08T09:42:41;2.60;99.90
46730;DHT22;32476;50.002;11.854;2024-03-08T09:45:10;2.80;99.90
46730;DHT22;32476;50.002;11.854;2024-03-08T09:47:42;2.50;99.90
46730;DHT22;32476;50.002;11.854;2024-03-08T09:50:11;2.40;99.90
46730;DHT22;32476;50.002;11.854;2024-03-08T09:52:42;2.50;99.90
46730;DHT22;32476;50.002;11.854;2024-03-08T09:55:12;2.40;99.90
46730;DHT22;32476;50.002;11.854;2024-03-08T09:57:40;2.40;99.90
46730;DHT22;32476;50.002;11.854;2024-03-08T10:00:06;2.50;99.90
46730;DHT22;32476;50.002;11.854;2024-03-08T10:02:51;2.60;99.90
46730;DHT22;32476;50.002;11.854;2024-03-08T10:05:19;2.70;99.90
46730;DHT22;32476;50.002;11.854;2024-03-08T10:07:47;2.80;99.90
46730;DHT22;32476;50.002;11.854;2024-03-08T10:10:15;2.80;99.90
46730;DHT22;32476;50.002;11.854;2024-03-08T10:12:41;3.10;99.90
46730;DHT22;32476;50.002;11.854;2024-03-08T10:15:08;3.70;99.90
46730;DHT22;32476;50.002;11.854;2024-03-08T10:17:36;4.20;99.90
46730;DHT22;32476;50.002;11.854;2024-03-08T10:20:01;4.60;99.90
46730;DHT22;32476;50.002;11.854;2024-03-08T10:22:29;4.40;99.90
46730;DHT22;32476;50.002;11.854;2024-03-08T10:24:58;4.40;99.90
46730;DHT22;32476;50.002;11.854;2024-03-08T10:27:26;4.60;99.90
46730;DHT22;32476;50.002;11.854;2024-03-08T10:29:52;4.70;99.90
46730;DHT22;32476;50.002;11.854;2024-03-08T10:32:20;4.90;99.90
46730;DHT22;32476;50.002;11.854;2024-03-08T10:34:46;5.20;99.90
46730;DHT22;32476;50.002;11.854;2024-03-08T10:37:15;5.30;99.90
46730;DHT22;32476;50.002;11.854;2024-03-08T10:39:56;5.00;99.90
46730;DHT22;32476;50.002;11.854;2024-03-08T10:42:40;5.20;99.90
46730;DHT22;32476;50.002;11.854;2024-03-08T10:45:15;5.00;99.90
46730;DHT22;32476;50.002;11.854;2024-03-08T10:47:57;5.50;99.90
46730;DHT22;32476;50.002;11.854;2024-03-08T10:50:51;5.60;99.90
46730;DHT22;32476;50.002;11.854;2024-03-08T10:53:19;5.90;99.90
46730;DHT22;32476;50.002;11.854;2024-03-08T10:55:49;6.00;99.90
46730;DHT22;32476;50.002;11.854;2024-03-08T10:58:21;5.80;99.90
46730;DHT22;32476;50.002;11.854;2024-03-08T11:00:48;6.10;99.90
46730;DHT22;32476;50.002;11.854;2024-03-08T11:08:59;6.20;99.90
46730;DHT22;32476;50.002;11.854;2024-03-08T11:11:29;6.80;99.90
46730;DHT22;32476;50.002;11.854;2024-03-08T11:13:59;7.20;99.90
46730;DHT22;32476;50.002;11.854;2024-03-08T11:18:54;5.80;99.90
46730;DHT22;32476;50.002;11.854;2024-03-08T11:21:23;5.80;99.90
46730;DHT22;32476;50.002;11.854;2024-03-08T11:24:02;5.90;99.90
46730;DHT22;32476;50.002;11.854;2024-03-08T11:26:33;6.20;99.90
46730;DHT22;32476;50.002;11.854;2024-03-08T11:32:14;6.60;99.90
46730;DHT22;32476;50.002;11.854;2024-03-08T11:34:47;6.80;99.90
46730;DHT22;32476;50.002;11.854;2024-03-08T11:37:18;7.00;99.90
46730;DHT22;32476;50.002;11.854;2024-03-08T11:39:52;7.20;99.90
46730;DHT22;32476;50.002;11.854;2024-03-08T11:42:26;7.40;99.90
46730;DHT22;32476;50.002;11.854;2024-03-08T11:44:52;7.30;99.90
46730;DHT22;32476;50.002;11.854;2024-03-08T11:47:19;7.70;99.90
46730;DHT22;32476;50.002;11.854;2024-03-08T11:49:46;7.20;99.90
46730;DHT22;32476;50.002;11.854;2024-03-08T11:52:15;7.40;99.90
46730;DHT22;32476;50.002;11.854;2024-03-08T11:54:47;7.20;99.90
46730;DHT22;32476;50.002;11.854;2024-03-08T11:57:18;7.10;99.90
46730;DHT22;32476;50.002;11.854;2024-03-08T11:59:54;7.20;99.90
46730;DHT22;32476;50.002;11.854;2024-03-08T12:02:27;7.70;99.90
46730;DHT22;32476;50.002;11.854;2024-03-08T12:05:01;7.80;99.90
46730;DHT22;32476;50.002;11.854;2024-03-08T12:07:30;7.30;99.90
46730;DHT22;32476;50.002;11.854;2024-03-08T12:12:50;6.90;99.90
46730;DHT22;32476;50.002;11.854;2024-03-08T12:15:18;7.10;99.90
46730;DHT22;32476;50.002;11.854;2024-03-08T12:17:50;6.70;99.90
46730;DHT22;32476;50.002;11.854;2024-03-08T12:20:26;6.90;99.90
46730;DHT22;32476;50.002;11.854;2024-03-08T12:22:54;7.00;99.90
46730;DHT22;32476;50.002;11.854;2024-03-08T12:25:32;7.00;99.90
46730;DHT22;32476;50.002;11.854;2024-03-08T12:28:09;6.80;99.90
46730;DHT22;32476;50.002;11.854;2024-03-08T12:30:49;6.70;99.90
46730;DHT22;32476;50.002;11.854;2024-03-08T12:33:20;6.30;99.90
46730;DHT22;32476;50.002;11.854;2024-03-08T12:35:52;6.20;99.90
46730;DHT22;32476;50.002;11.854;2024-03-08T12:38:29;6.60;99.90
46730;DHT22;32476;50.002;11.854;2024-03-08T12:40:59;7.00;99.90
46730;DHT22;32476;50.002;11.854;2024-03-08T12:43:26;7.60;99.90
46730;DHT22;32476;50.002;11.854;2024-03-08T12:45:55;7.30;99.90
46730;DHT22;32476;50.002;11.854;2024-03-08T12:48:23;7.60;99.90
46730;DHT22;32476;50.002;11.854;2024-03-08T12:50:49;7.50;99.90
46730;DHT22;32476;50.002;11.854;2024-03-08T12:53:17;7.70;99.90
46730;DHT22;32476;50.002;11.854;2024-03-08T12:56:19;7.80;99.90
46730;DHT22;32476;50.002;11.854;2024-03-08T12:58:46;7.60;99.90
46730;DHT22;32476;50.002;11.854;2024-03-08T13:01:14;8.00;99.90
46730;DHT22;32476;50.002;11.854;2024-03-08T13:03:40;7.80;99.90
46730;DHT22;32476;50.002;11.854;2024-03-08T13:06:09;7.60;99.90
46730;DHT22;32476;50.002;11.854;2024-03-08T13:08:37;8.00;99.90
46730;DHT22;32476;50.002;11.854;2024-03-08T13:11:05;7.80;99.90
46730;DHT22;32476;50.002;11.854;2024-03-08T13:13:38;7.70;99.90
46730;DHT22;32476;50.002;11.854;2024-03-08T13:16:06;7.70;99.90
46730;DHT22;32476;50.002;11.854;2024-03-08T13:18:38;7.70;99.90
46730;DHT22;32476;50.002;11.854;2024-03-08T13:21:06;7.90;99.90
46730;DHT22;32476;50.002;11.854;2024-03-08T13:23:41;8.00;99.90
46730;DHT22;32476;50.002;11.854;2024-03-08T13:26:13;8.20;99.90
46730;DHT22;32476;50.002;11.854;2024-03-08T13:28:45;8.90;99.90
46730;DHT22;32476;50.002;11.854;2024-03-08T13:31:38;8.40;99.90
46730;DHT22;32476;50.002;11.854;2024-03-08T13:34:05;8.00;99.90
46730;DHT22;32476;50.002;11.854;2024-03-08T13:36:32;8.10;99.90
46730;DHT22;32476;50.002;11.854;2024-03-08T13:39:04;8.20;99.90
46730;DHT22;32476;50.002;11.854;2024-03-08T13:41:42;8.70;99.90
46730;DHT22;32476;50.002;11.854;2024-03-08T13:44:08;8.80;99.90
46730;DHT22;32476;50.002;11.854;2024-03-08T13:46:34;8.80;99.90
46730;DHT22;32476;50.002;11.854;2024-03-08T13:49:05;8.40;99.60
46730;DHT22;32476;50.002;11.854;2024-03-08T13:51:34;8.10;99.90
46730;DHT22;32476;50.002;11.854;2024-03-08T13:54:00;8.10;99.70
46730;DHT22;32476;50.002;11.854;2024-03-08T13:56:28;8.20;99.70
46730;DHT22;32476;50.002;11.854;2024-03-08T13:58:56;8.10;99.70
46730;DHT22;32476;50.002;11.854;2024-03-08T14:01:23;8.10;99.50
46730;DHT22;32476;50.002;11.854;2024-03-08T14:03:50;8.50;99.90
46730;DHT22;32476;50.002;11.854;2024-03-08T14:06:16;8.80;99.90
46730;DHT22;32476;50.002;11.854;2024-03-08T14:08:42;8.80;98.60
46730;DHT22;32476;50.002;11.854;2024-03-08T14:11:09;8.30;98.80
46730;DHT22;32476;50.002;11.854;2024-03-08T14:13:45;8.00;98.70
46730;DHT22;32476;50.002;11.854;2024-03-08T14:16:13;8.20;99.50
46730;DHT22;32476;50.002;11.854;2024-03-08T14:18:39;8.10;98.20
46730;DHT22;32476;50.002;11.854;2024-03-08T14:21:05;8.20;98.70
46730;DHT22;32476;50.002;11.854;2024-03-08T14:23:50;8.40;98.70
46730;DHT22;32476;50.002;11.854;2024-03-08T14:26:17;8.40;98.00
46730;DHT22;32476;50.002;11.854;2024-03-08T14:28:45;8.40;98.30
46730;DHT22;32476;50.002;11.854;2024-03-08T14:31:11;8.60;98.40
46730;DHT22;32476;50.002;11.854;2024-03-08T14:33:37;8.10;97.40
46730;DHT22;32476;50.002;11.854;2024-03-08T14:36:05;8.10;98.10
46730;DHT22;32476;50.002;11.854;2024-03-08T14:38:31;8.10;97.90
46730;DHT22;32476;50.002;11.854;2024-03-08T14:40:57;8.10;98.90
46730;DHT22;32476;50.002;11.854;2024-03-08T14:43:24;7.90;98.40
46730;DHT22;32476;50.002;11.854;2024-03-08T14:45:52;8.10;98.50
46730;DHT22;32476;50.002;11.854;2024-03-08T14:48:18;7.90;98.40
46730;DHT22;32476;50.002;11.854;2024-03-08T14:50:47;7.80;98.90
46730;DHT22;32476;50.002;11.854;2024-03-08T14:53:13;8.10;99.00
46730;DHT22;32476;50.002;11.854;2024-03-08T14:55:41;8.40;99.20
46730;DHT22;32476;50.002;11.854;2024-03-08T14:58:09;8.40;98.50
46730;DHT22;32476;50.002;11.854;2024-03-08T15:00:36;8.30;98.10
46730;DHT22;32476;50.002;11.854;2024-03-08T15:03:03;8.10;97.50
46730;DHT22;32476;50.002;11.854;2024-03-08T15:05:37;8.10;97.60
46730;DHT22;32476;50.002;11.854;2024-03-08T15:08:10;7.90;98.20
46730;DHT22;32476;50.002;11.854;2024-03-08T15:10:39;8.10;98.40
46730;DHT22;32476;50.002;11.854;2024-03-08T15:13:06;8.10;98.20
46730;DHT22;32476;50.002;11.854;2024-03-08T15:15:41;8.30;97.80
46730;DHT22;32476;50.002;11.854;2024-03-08T15:18:08;8.10;97.10
46730;DHT22;32476;50.002;11.854;2024-03-08T15:20:36;8.00;97.60
46730;DHT22;32476;50.002;11.854;2024-03-08T15:23:04;8.00;97.10
46730;DHT22;32476;50.002;11.854;2024-03-08T15:25:30;8.00;97.30
46730;DHT22;32476;50.002;11.854;2024-03-08T15:27:56;8.00;97.60
46730;DHT22;32476;50.002;11.854;2024-03-08T15:30:25;7.90;97.70
46730;DHT22;32476;50.002;11.854;2024-03-08T15:32:56;8.00;97.00
46730;DHT22;32476;50.002;11.854;2024-03-08T15:35:23;8.10;97.60
46730;DHT22;32476;50.002;11.854;2024-03-08T15:37:53;7.60;97.30
46730;DHT22;32476;50.002;11.854;2024-03-08T15:40:23;7.70;98.10
46730;DHT22;32476;50.002;11.854;2024-03-08T15:45:24;7.60;97.60
46730;DHT22;32476;50.002;11.854;2024-03-08T15:47:52;7.70;98.40
46730;DHT22;32476;50.002;11.854;2024-03-08T15:50:19;7.80;98.20